Time;durP1;ratioP1;P1;durP2;ratioP2;P2;SDS_P1;SDS_P2;PMS_P1;PMS_P2;Temp;Humidity;BMP_temperature;BMP_pressure;BME280_temperature;BME280_humidity;BME280_pressure;Samples;Min_cycle;Max_cycle;Signal;HPM_P1;HPM_P2
2021/04/11 00:00:14;;;;;;;4.43;3.00;;;6.60;99.90;;;;;;5096929;28;20446;-75
2021/04/11 00:02:41;;;;;;;6.50;3.42;;;6.60;99.90;;;;;;5090675;28;21175;-75
2021/04/11 00:05:09;;;;;;;8.55;3.38;;;6.70;99.90;;;;;;5095678;28;20412;-74
2021/04/11 00:07:36;;;;;;;9.32;3.53;;;6.70;99.90;;;;;;5091443;28;20483;-76
2021/04/11 00:10:06;;;;;;;7.88;3.13;;;6.70;99.90;;;;;;5097893;28;20421;-75
2021/04/11 00:12:32;;;;;;;6.70;3.30;;;6.80;99.90;;;;;;5097082;28;20814;-76
2021/04/11 00:14:59;;;;;;;6.88;3.20;;;6.80;99.90;;;;;;5091285;28;20414;-75
2021/04/11 00:17:25;;;;;;;7.97;3.08;;;6.80;99.90;;;;;;5103080;28;20763;-75
2021/04/11 00:19:51;;;;;;;6.85;2.75;;;6.70;99.90;;;;;;5094099;28;20485;-75
2021/04/11 00:22:18;;;;;;;6.80;2.80;;;6.70;99.90;;;;;;5080683;28;20932;-75
2021/04/11 00:24:45;;;;;;;4.90;2.72;;;6.70;99.90;;;;;;5097617;28;20479;-75
2021/04/11 00:27:12;;;;;;;6.40;2.65;;;6.70;99.90;;;;;;5100576;28;20439;-75
2021/04/11 00:29:38;;;;;;;6.28;3.03;;;6.70;99.90;;;;;;5091693;28;20785;-75
2021/04/11 00:32:07;;;;;;;6.13;3.47;;;6.70;99.90;;;;;;5097142;28;20418;-75
2021/04/11 00:34:33;;;;;;;7.78;3.20;;;6.70;99.90;;;;;;5102104;28;20408;-77
2021/04/11 00:37:00;;;;;;;6.47;3.10;;;6.70;99.90;;;;;;5076515;28;20973;-75
2021/04/11 00:39:26;;;;;;;6.22;3.20;;;6.70;99.90;;;;;;5097784;28;20463;-75
2021/04/11 00:42:00;;;;;;;7.30;3.20;;;6.70;99.90;;;;;;5097246;28;20820;-76
2021/04/11 00:44:26;;;;;;;7.53;3.50;;;6.70;99.90;;;;;;5097712;28;20432;-76
2021/04/11 00:46:55;;;;;;;5.32;3.25;;;6.70;99.90;;;;;;5096790;28;20413;-75
2021/04/11 00:49:29;;;;;;;6.95;3.38;;;6.70;99.90;;;;;;5076098;28;20512;-75
2021/04/11 00:51:56;;;;;;;7.27;3.30;;;6.70;99.90;;;;;;5077691;28;20454;-76
2021/04/11 00:54:23;;;;;;;7.75;3.10;;;6.70;99.90;;;;;;5079909;28;20457;-76
2021/04/11 00:56:50;;;;;;;6.70;2.88;;;6.70;99.90;;;;;;5099231;28;20425;-75
2021/04/11 00:59:19;;;;;;;9.15;2.90;;;6.70;99.90;;;;;;5077806;28;20968;-75
2021/04/11 01:01:46;;;;;;;7.10;2.97;;;6.70;99.90;;;;;;5092086;28;20417;-75
2021/04/11 01:04:15;;;;;;;6.13;2.60;;;6.80;99.90;;;;;;5078787;28;20422;-75
2021/04/11 01:06:46;;;;;;;9.02;2.90;;;6.70;99.90;;;;;;5074926;28;20413;-76
2021/04/11 01:09:18;;;;;;;5.72;2.78;;;6.70;99.90;;;;;;5081252;28;20418;-75
2021/04/11 01:11:46;;;;;;;7.55;2.70;;;6.70;99.90;;;;;;5078859;28;20798;-75
2021/04/11 01:14:14;;;;;;;5.90;2.60;;;6.70;99.90;;;;;;5080007;28;20448;-76
2021/04/11 01:16:44;;;;;;;4.93;2.70;;;6.70;99.90;;;;;;5081581;28;20417;-76
2021/04/11 01:19:13;;;;;;;6.38;2.60;;;6.70;99.90;;;;;;5092810;28;20789;-74
2021/04/11 01:21:44;;;;;;;8.27;2.95;;;6.70;99.90;;;;;;5098972;28;20420;-74
2021/04/11 01:24:17;;;;;;;6.85;3.00;;;6.70;99.90;;;;;;5074342;28;20424;-75
2021/04/11 01:26:54;;;;;;;6.95;2.70;;;6.70;99.90;;;;;;5072949;28;20511;-75
2021/04/11 01:29:22;;;;;;;6.37;3.00;;;6.70;99.90;;;;;;5093150;28;20430;-74
2021/04/11 01:31:50;;;;;;;6.97;2.70;;;6.70;99.90;;;;;;5090831;28;20798;-74
2021/04/11 01:34:16;;;;;;;7.07;2.70;;;6.70;99.90;;;;;;5080020;28;20426;-74
2021/04/11 01:36:48;;;;;;;6.03;2.45;;;6.70;99.90;;;;;;5078571;28;20424;-76
2021/04/11 01:39:20;;;;;;;8.07;2.40;;;6.60;99.90;;;;;;5097899;28;20399;-76
2021/04/11 01:41:51;;;;;;;7.53;2.30;;;6.60;99.90;;;;;;5079435;28;20512;-75
2021/04/11 01:44:23;;;;;;;6.07;2.10;;;6.70;99.90;;;;;;5071384;28;20430;-76
2021/04/11 01:46:51;;;;;;;4.95;1.92;;;6.60;99.90;;;;;;5103713;28;20435;-75
2021/04/11 01:49:19;;;;;;;5.63;1.77;;;6.70;99.90;;;;;;5099874;28;20398;-75
2021/04/11 01:51:52;;;;;;;4.05;1.70;;;6.70;99.90;;;;;;5089965;28;20398;-75
2021/04/11 01:54:23;;;;;;;4.97;1.60;;;6.70;99.90;;;;;;5075529;28;20416;-75
2021/04/11 01:56:50;;;;;;;4.88;1.83;;;6.70;99.90;;;;;;5075983;28;20425;-75
2021/04/11 01:59:25;;;;;;;4.30;1.73;;;6.70;99.90;;;;;;5077643;28;20572;-75
2021/04/11 02:01:54;;;;;;;4.43;1.85;;;6.70;99.90;;;;;;5071838;28;20507;-75
2021/04/11 02:04:22;;;;;;;4.05;1.60;;;6.60;99.90;;;;;;5076821;28;20424;-75
2021/04/11 02:06:52;;;;;;;4.82;1.73;;;6.60;99.90;;;;;;5076190;28;20782;-75
2021/04/11 02:09:30;;;;;;;4.40;1.73;;;6.60;99.90;;;;;;5080382;28;20525;-75
2021/04/11 02:12:08;;;;;;;4.20;1.50;;;6.60;99.90;;;;;;5075518;28;20426;-75
2021/04/11 02:14:39;;;;;;;3.92;1.52;;;6.60;99.90;;;;;;5079099;28;20417;-75
2021/04/11 02:17:06;;;;;;;4.93;1.60;;;6.60;99.90;;;;;;5079236;28;20839;-75
2021/04/11 02:19:34;;;;;;;4.35;1.58;;;6.50;99.90;;;;;;5097425;28;20412;-74
2021/04/11 02:22:06;;;;;;;4.78;1.55;;;6.50;99.90;;;;;;5071848;28;20767;-74
2021/04/11 02:24:36;;;;;;;6.67;1.90;;;6.60;99.90;;;;;;5080134;28;20424;-74
2021/04/11 02:27:03;;;;;;;3.63;1.70;;;6.60;99.90;;;;;;5100203;28;20453;-74
2021/04/11 02:29:30;;;;;;;6.05;1.80;;;6.50;99.90;;;;;;5074480;28;20417;-75
2021/04/11 02:31:59;;;;;;;4.07;1.80;;;6.50;99.90;;;;;;5078608;28;20419;-75
2021/04/11 02:34:29;;;;;;;3.58;1.75;;;6.50;99.90;;;;;;5074054;28;20421;-75
2021/04/11 02:37:00;;;;;;;5.35;2.03;;;6.50;99.90;;;;;;5079438;28;20942;-74
2021/04/11 02:39:29;;;;;;;5.03;1.60;;;6.50;99.90;;;;;;5078724;28;20513;-74
2021/04/11 02:41:59;;;;;;;5.47;1.50;;;6.50;99.90;;;;;;5082529;28;20428;-75
2021/04/11 02:44:27;;;;;;;7.07;1.63;;;6.50;99.90;;;;;;5078241;28;20471;-74
2021/04/11 02:46:55;;;;;;;6.28;1.83;;;6.50;99.90;;;;;;5080538;28;20894;-75
2021/04/11 02:49:23;;;;;;;4.43;1.60;;;6.50;99.90;;;;;;5079671;28;20455;-74
2021/04/11 02:51:53;;;;;;;5.07;1.50;;;6.50;99.90;;;;;;5076697;28;20416;-74
2021/04/11 02:54:24;;;;;;;5.35;1.60;;;6.50;99.90;;;;;;5077397;28;20414;-74
2021/04/11 02:56:59;;;;;;;6.35;1.80;;;6.50;99.90;;;;;;5081386;28;20422;-75
2021/04/11 02:59:32;;;;;;;6.28;1.63;;;6.50;99.90;;;;;;5076282;28;20802;-74
2021/04/11 03:02:03;;;;;;;6.03;1.60;;;6.50;99.90;;;;;;5101311;28;22956;-73
2021/04/11 03:04:31;;;;;;;5.32;1.67;;;6.50;99.90;;;;;;5082820;28;20436;-75
2021/04/11 03:07:05;;;;;;;5.55;1.50;;;6.40;99.90;;;;;;5096190;28;20433;-75
2021/04/11 03:09:38;;;;;;;6.70;1.48;;;6.50;99.90;;;;;;5079389;28;20408;-75
2021/04/11 03:12:08;;;;;;;5.97;1.50;;;6.50;99.90;;;;;;5083993;28;21267;-75
2021/04/11 03:14:38;;;;;;;5.68;1.30;;;6.40;99.90;;;;;;5096084;28;20436;-74
2021/04/11 03:17:11;;;;;;;6.60;1.40;;;6.40;99.90;;;;;;5096841;28;20419;-75
2021/04/11 03:19:44;;;;;;;5.97;1.40;;;6.40;99.90;;;;;;5098201;28;20920;-75
2021/04/11 03:22:14;;;;;;;6.47;1.65;;;6.50;99.90;;;;;;5073604;28;20421;-75
2021/04/11 03:24:41;;;;;;;5.80;1.50;;;6.50;99.90;;;;;;5081971;28;20668;-75
2021/04/11 03:27:13;;;;;;;5.55;1.30;;;6.40;99.90;;;;;;5093337;28;20805;-76
2021/04/11 03:29:45;;;;;;;6.97;1.20;;;6.50;99.90;;;;;;5074616;28;20418;-76
2021/04/11 03:32:20;;;;;;;7.03;1.23;;;6.40;99.90;;;;;;5096116;28;20463;-75
2021/04/11 03:34:53;;;;;;;5.72;1.38;;;6.40;99.90;;;;;;5079164;28;20410;-75
2021/04/11 03:37:20;;;;;;;6.10;1.40;;;6.50;99.90;;;;;;5093976;28;20934;-76
2021/04/11 03:39:48;;;;;;;4.88;1.50;;;6.50;99.90;;;;;;5081262;28;20427;-76
2021/04/11 03:42:19;;;;;;;7.05;1.40;;;6.50;99.90;;;;;;5072112;28;20417;-75
2021/04/11 03:44:48;;;;;;;6.57;1.50;;;6.50;99.90;;;;;;5079097;28;20418;-75
2021/04/11 03:47:24;;;;;;;7.43;1.40;;;6.50;99.90;;;;;;5078981;28;20920;-75
2021/04/11 03:50:01;;;;;;;5.15;1.30;;;6.50;99.90;;;;;;5075453;28;20418;-75
2021/04/11 03:52:40;;;;;;;4.78;1.70;;;6.50;99.90;;;;;;5080557;28;20425;-75
2021/04/11 03:55:12;;;;;;;8.05;1.40;;;6.40;99.90;;;;;;5094708;28;20507;-75
2021/04/11 03:57:47;;;;;;;5.40;1.33;;;6.40;99.90;;;;;;5082237;28;20448;-75
2021/04/11 04:00:16;;;;;;;5.30;1.60;;;6.40;99.90;;;;;;5074945;28;20418;-75
2021/04/11 04:02:53;;;;;;;6.05;1.40;;;6.40;99.80;;;;;;5094136;28;20444;-75
2021/04/11 04:05:29;;;;;;;5.50;1.40;;;6.40;99.90;;;;;;5075441;28;20417;-75
2021/04/11 04:08:00;;;;;;;7.32;1.30;;;6.40;99.90;;;;;;5083413;28;20425;-74
2021/04/11 04:10:31;;;;;;;6.63;1.30;;;6.40;99.90;;;;;;5080587;28;20796;-75
2021/04/11 04:13:27;;;;;;;4.82;1.20;;;6.40;99.90;;;;;;5078283;28;20425;-75
2021/04/11 04:16:08;;;;;;;6.60;1.52;;;6.50;99.80;;;;;;5077382;28;20414;-75
2021/04/11 04:19:11;;;;;;;4.18;1.33;;;6.40;99.50;;;;;;5073588;28;20544;-75
2021/04/11 04:22:13;;;;;;;5.03;1.25;;;6.40;99.40;;;;;;5075199;28;20941;-75
2021/04/11 04:25:06;;;;;;;6.95;1.38;;;6.40;99.30;;;;;;5079562;28;20890;-75
2021/04/11 04:28:01;;;;;;;7.10;1.40;;;6.50;99.50;;;;;;5080935;28;20426;-75
2021/04/11 04:30:43;;;;;;;5.63;1.30;;;6.40;99.40;;;;;;5071202;28;20424;-75
2021/04/11 04:33:52;;;;;;;5.88;1.40;;;6.40;99.10;;;;;;5078562;28;20431;-75
2021/04/11 04:36:32;;;;;;;6.28;1.30;;;6.50;98.90;;;;;;4993068;28;20425;-75
2021/04/11 04:39:23;;;;;;;5.70;1.10;;;6.40;98.50;;;;;;4991577;28;20577;-75
2021/04/11 04:41:57;;;;;;;4.00;1.10;;;6.40;98.90;;;;;;5046768;28;20498;-75
2021/04/11 04:44:32;;;;;;;5.30;1.17;;;6.40;98.70;;;;;;5067975;28;20769;-75
2021/04/11 04:47:06;;;;;;;5.07;1.30;;;6.40;98.40;;;;;;5067103;28;20433;-74
2021/04/11 04:49:50;;;;;;;5.00;1.27;;;6.30;98.00;;;;;;5065821;28;20941;-75
2021/04/11 04:52:23;;;;;;;4.43;1.17;;;6.40;98.20;;;;;;5067009;28;20435;-75
2021/04/11 04:54:57;;;;;;;8.88;1.40;;;6.40;98.20;;;;;;5069533;28;20399;-76
2021/04/11 04:57:29;;;;;;;6.37;1.30;;;6.40;98.30;;;;;;5066129;28;20950;-76
2021/04/11 05:00:06;;;;;;;9.55;1.27;;;6.40;98.40;;;;;;5068476;28;20454;-76
2021/04/11 05:02:46;;;;;;;5.60;1.10;;;6.40;98.30;;;;;;5066687;28;20431;-75
2021/04/11 05:05:15;;;;;;;7.13;1.60;;;6.40;97.80;;;;;;5061764;28;20423;-75
2021/04/11 05:07:54;;;;;;;5.45;1.13;;;6.40;97.80;;;;;;5067013;28;21154;-75
2021/04/11 05:10:26;;;;;;;5.68;1.27;;;6.40;97.70;;;;;;5066830;28;20430;-76
2021/04/11 05:13:08;;;;;;;3.90;1.10;;;6.40;97.80;;;;;;5066369;28;20477;-77
2021/04/11 05:15:43;;;;;;;7.90;1.73;;;6.40;97.70;;;;;;5065230;28;20537;-76
2021/04/11 05:18:22;;;;;;;6.65;1.42;;;6.40;97.70;;;;;;5066186;28;20530;-76
2021/04/11 05:21:04;;;;;;;8.53;1.40;;;6.40;97.80;;;;;;5066917;28;20435;-77
2021/04/11 05:23:40;;;;;;;6.28;1.38;;;6.40;97.80;;;;;;5065749;28;20450;-76
2021/04/11 05:26:15;;;;;;;4.65;1.50;;;6.30;97.80;;;;;;5064404;28;20427;-76
2021/04/11 05:28:49;;;;;;;6.97;1.40;;;6.30;97.70;;;;;;5065337;28;20431;-76
2021/04/11 05:31:18;;;;;;;6.72;1.50;;;6.30;97.80;;;;;;5068054;28;20411;-76
2021/04/11 05:33:45;;;;;;;7.85;1.60;;;6.30;97.90;;;;;;5068255;28;20407;-76
2021/04/11 05:36:23;;;;;;;6.47;1.63;;;6.30;98.10;;;;;;5065622;28;20477;-76
2021/04/11 05:39:07;;;;;;;6.72;1.60;;;6.30;98.20;;;;;;5063773;28;20411;-77
2021/04/11 05:41:42;;;;;;;7.35;1.40;;;6.30;98.10;;;;;;5080090;28;20428;-77
2021/04/11 05:44:15;;;;;;;6.72;1.35;;;6.20;98.10;;;;;;5087148;28;20461;-77
2021/04/11 05:46:45;;;;;;;5.60;1.30;;;6.30;98.40;;;;;;5092493;28;20430;-76
2021/04/11 05:49:16;;;;;;;5.53;1.58;;;6.30;98.70;;;;;;5083382;28;20462;-76
2021/04/11 05:51:48;;;;;;;5.87;1.60;;;6.30;98.50;;;;;;5100356;28;20502;-78
2021/04/11 05:54:18;;;;;;;6.95;1.52;;;6.30;98.50;;;;;;5065720;28;20970;-74
2021/04/11 05:56:50;;;;;;;10.32;1.55;;;6.40;98.90;;;;;;5071637;28;20922;-73
2021/04/11 05:59:21;;;;;;;5.80;1.50;;;6.40;98.30;;;;;;5085438;28;20886;-74
2021/04/11 06:01:52;;;;;;;7.10;1.58;;;6.40;98.10;;;;;;5093482;28;20414;-75
2021/04/11 06:04:28;;;;;;;5.60;1.40;;;6.40;98.20;;;;;;5069103;28;20526;-75
2021/04/11 06:07:00;;;;;;;7.30;1.60;;;6.40;98.10;;;;;;5092176;28;20420;-74
2021/04/11 06:09:33;;;;;;;7.57;1.50;;;6.50;98.00;;;;;;5089994;28;20425;-75
2021/04/11 06:12:06;;;;;;;3.75;1.33;;;6.50;98.00;;;;;;5088688;28;20430;-74
2021/04/11 06:14:37;;;;;;;6.57;1.30;;;6.60;97.60;;;;;;5080590;28;20473;-77
2021/04/11 06:17:09;;;;;;;7.13;1.55;;;6.60;97.60;;;;;;5096088;28;20493;-75
2021/04/11 06:19:36;;;;;;;6.17;1.57;;;6.60;97.40;;;;;;5099412;28;20404;-76
2021/04/11 06:22:09;;;;;;;6.85;1.70;;;6.70;97.50;;;;;;5095309;28;20428;-76
2021/04/11 06:24:47;;;;;;;6.07;1.48;;;6.70;97.10;;;;;;5078293;28;20432;-76
2021/04/11 06:27:42;;;;;;;8.80;1.48;;;6.80;96.80;;;;;;5095459;28;20408;-76
2021/04/11 06:30:14;;;;;;;4.93;1.50;;;6.80;96.60;;;;;;5072589;28;20422;-76
2021/04/11 06:32:44;;;;;;;6.07;1.70;;;6.80;96.40;;;;;;5090705;28;20407;-76
2021/04/11 06:35:13;;;;;;;11.10;2.77;;;6.90;96.50;;;;;;5097592;28;20401;-76
2021/04/11 06:37:42;;;;;;;5.80;1.50;;;6.90;96.70;;;;;;5092606;28;20425;-77
2021/04/11 06:40:18;;;;;;;7.97;1.60;;;7.00;96.30;;;;;;5099778;28;20413;-77
2021/04/11 06:43:14;;;;;;;7.80;1.38;;;7.00;96.20;;;;;;5097992;28;20401;-76
2021/04/11 06:45:44;;;;;;;6.17;1.57;;;7.00;96.20;;;;;;5103896;28;20420;-76
2021/04/11 06:48:30;;;;;;;9.00;1.70;;;7.00;95.80;;;;;;5075024;28;20490;-77
2021/04/11 06:51:22;;;;;;;7.57;1.58;;;7.10;95.80;;;;;;5086293;28;20971;-76
2021/04/11 06:54:21;;;;;;;6.63;1.50;;;7.10;95.70;;;;;;5100037;28;20425;-76
2021/04/11 06:56:59;;;;;;;5.82;1.80;;;7.10;95.50;;;;;;5076066;28;21942;-76
2021/04/11 06:59:39;;;;;;;7.82;1.70;;;7.10;95.90;;;;;;5090335;28;20413;-76
2021/04/11 07:02:55;;;;;;;6.72;1.60;;;7.20;95.60;;;;;;5073608;28;20455;-77
2021/04/11 07:05:40;;;;;;;4.55;1.40;;;7.20;95.30;;;;;;4969847;28;20434;-75
2021/04/11 07:08:50;;;;;;;5.55;1.60;;;7.20;95.20;;;;;;5081937;28;20424;-77
2021/04/11 07:11:56;;;;;;;6.07;1.40;;;7.20;95.40;;;;;;5076159;28;20424;-76
2021/04/11 07:14:58;;;;;;;6.45;1.50;;;7.30;95.30;;;;;;5094045;28;20808;-76
2021/04/11 07:17:59;;;;;;;6.03;1.50;;;7.30;95.80;;;;;;5079001;28;20419;-77
2021/04/11 07:20:40;;;;;;;7.93;1.70;;;7.30;95.10;;;;;;5075335;28;20432;-76
2021/04/11 07:23:57;;;;;;;6.70;2.03;;;7.30;94.60;;;;;;5097169;28;20516;-76
2021/04/11 07:26:40;;;;;;;6.97;1.52;;;7.40;94.70;;;;;;5092722;28;20419;-76
2021/04/11 07:29:20;;;;;;;5.43;1.30;;;7.40;94.60;;;;;;5081329;28;20426;-75
2021/04/11 07:32:21;;;;;;;4.53;1.23;;;7.40;94.10;;;;;;5085244;28;20910;-76
2021/04/11 07:35:07;;;;;;;6.47;1.30;;;7.40;94.50;;;;;;5099027;28;20785;-76
2021/04/11 07:37:48;;;;;;;5.95;1.10;;;7.40;94.00;;;;;;5101198;28;20410;-78
2021/04/11 07:40:22;;;;;;;5.60;1.40;;;7.50;93.80;;;;;;5080697;28;20421;-78
2021/04/11 07:43:24;;;;;;;7.22;1.40;;;7.50;93.60;;;;;;5078023;28;20932;-78
2021/04/11 07:46:24;;;;;;;6.57;1.30;;;7.50;93.90;;;;;;5099672;28;20503;-78
2021/04/11 07:49:22;;;;;;;7.17;1.40;;;7.60;93.80;;;;;;5077310;28;20434;-78
2021/04/11 07:51:57;;;;;;;5.57;1.05;;;7.70;93.40;;;;;;5097288;28;20466;-77
2021/04/11 07:54:44;;;;;;;6.75;1.35;;;7.80;93.00;;;;;;5075485;28;20441;-78
2021/04/11 07:57:40;;;;;;;7.20;1.20;;;7.90;92.90;;;;;;5077080;28;20910;-76
2021/04/11 08:00:22;;;;;;;5.00;1.00;;;7.90;91.90;;;;;;5096129;28;20408;-76
2021/04/11 08:03:08;;;;;;;6.33;1.00;;;8.00;91.40;;;;;;5075624;28;20429;-77
2021/04/11 08:05:50;;;;;;;5.97;1.05;;;8.00;90.90;;;;;;5075509;28;20426;-78
2021/04/11 08:08:27;;;;;;;3.28;1.00;;;8.10;90.90;;;;;;5096781;28;20427;-79
2021/04/11 08:11:35;;;;;;;7.35;1.20;;;8.10;90.40;;;;;;5078288;28;20433;-81
2021/04/11 08:14:10;;;;;;;8.07;1.98;;;8.30;90.10;;;;;;5047789;28;20410;-78
2021/04/11 08:16:48;;;;;;;5.60;1.05;;;8.30;89.50;;;;;;5097916;28;20419;-78
2021/04/11 08:19:51;;;;;;;4.10;1.52;;;8.40;88.80;;;;;;5073065;28;20421;-78
2021/04/11 08:22:40;;;;;;;5.22;1.60;;;8.50;89.60;;;;;;5089659;28;20510;-74
2021/04/11 08:25:18;;;;;;;5.85;1.10;;;8.60;90.00;;;;;;5075401;28;20985;-78
2021/04/11 08:28:23;;;;;;;4.55;0.90;;;8.70;88.70;;;;;;5091048;28;20544;-74
2021/04/11 08:31:06;;;;;;;6.70;1.10;;;8.70;85.30;;;;;;5088416;28;20919;-76
2021/04/11 08:33:50;;;;;;;6.32;1.50;;;8.80;86.90;;;;;;5096996;28;20414;-76
2021/04/11 08:36:54;;;;;;;7.85;2.22;;;8.80;86.20;;;;;;5090443;28;20528;-77
2021/04/11 08:39:43;;;;;;;5.53;1.10;;;8.80;84.60;;;;;;5074038;28;20462;-76
2021/04/11 08:42:32;;;;;;;6.82;1.02;;;8.80;85.20;;;;;;5092522;28;20454;-77
2021/04/11 08:45:20;;;;;;;5.65;1.20;;;8.80;85.50;;;;;;5035007;28;20506;-77
2021/04/11 08:47:53;;;;;;;4.45;1.05;;;8.80;85.10;;;;;;5089980;28;20849;-76
2021/04/11 08:50:24;;;;;;;5.03;1.02;;;8.90;85.00;;;;;;5093992;28;20417;-80
2021/04/11 08:53:06;;;;;;;3.78;1.10;;;8.90;84.30;;;;;;5091893;28;20459;-78
2021/04/11 08:55:41;;;;;;;4.55;1.02;;;8.90;84.70;;;;;;5077739;28;20459;-79
2021/04/11 08:58:23;;;;;;;4.50;0.88;;;9.00;85.50;;;;;;5089101;28;20445;-77
2021/04/11 09:00:52;;;;;;;5.00;0.95;;;9.20;84.80;;;;;;5074850;28;20508;-83
2021/04/11 09:03:58;;;;;;;8.57;1.20;;;9.20;83.90;;;;;;5096539;28;20401;-79
2021/04/11 09:06:39;;;;;;;5.07;1.00;;;9.30;83.70;;;;;;5089228;28;20421;-77
2021/04/11 09:09:19;;;;;;;4.18;1.00;;;9.40;81.90;;;;;;5091769;28;20505;-77
2021/04/11 09:11:51;;;;;;;4.70;1.10;;;9.40;80.20;;;;;;5089283;28;20422;-76
2021/04/11 09:14:29;;;;;;;3.47;1.08;;;9.30;79.10;;;;;;5074714;28;20451;-77
2021/04/11 09:17:10;;;;;;;5.85;0.90;;;9.30;78.00;;;;;;5088770;28;20417;-77
2021/04/11 09:19:50;;;;;;;3.83;0.90;;;9.20;78.60;;;;;;5073617;28;20904;-77
2021/04/11 09:22:33;;;;;;;6.97;2.30;;;9.20;80.90;;;;;;5099091;28;20422;-79
2021/04/11 09:25:05;;;;;;;5.03;1.42;;;9.10;81.10;;;;;;5086560;28;20470;-76
2021/04/11 09:28:05;;;;;;;3.65;1.00;;;9.10;81.60;;;;;;5091623;28;20488;-76
2021/04/11 09:30:47;;;;;;;6.85;1.00;;;9.10;79.90;;;;;;5095163;28;20517;-74
2021/04/11 09:33:38;;;;;;;2.30;0.80;;;9.00;80.20;;;;;;5074027;28;20422;-75
2021/04/11 09:36:14;;;;;;;6.18;0.80;;;9.00;80.90;;;;;;5091604;28;20492;-75
2021/04/11 09:39:03;;;;;;;4.70;0.90;;;9.10;80.60;;;;;;5093206;28;20418;-76
2021/04/11 09:42:03;;;;;;;4.28;0.85;;;9.10;79.40;;;;;;5089776;28;20426;-79
2021/04/11 09:44:55;;;;;;;5.82;1.02;;;9.20;78.20;;;;;;5093878;28;20424;-78
2021/04/11 09:47:32;;;;;;;2.58;0.90;;;9.20;78.00;;;;;;5093945;28;20501;-77
2021/04/11 09:50:21;;;;;;;4.20;1.08;;;9.20;77.80;;;;;;5078234;28;20210;-78
2021/04/11 09:53:18;;;;;;;6.80;0.98;;;8.90;79.30;;;;;;5083637;28;20225;-77
2021/04/11 09:55:50;;;;;;;2.53;0.98;;;8.70;80.70;;;;;;5079102;28;20202;-76
2021/04/11 09:58:43;;;;;;;3.28;1.10;;;8.70;81.10;;;;;;5089293;28;20197;-76
2021/04/11 10:01:20;;;;;;;4.18;0.82;;;8.60;82.20;;;;;;5068203;28;20297;-76
2021/04/11 10:04:04;;;;;;;2.55;0.98;;;8.70;82.50;;;;;;5072847;28;20216;-77
2021/04/11 10:06:57;;;;;;;10.75;1.90;;;8.70;82.40;;;;;;5090675;28;20190;-77
2021/04/11 10:09:42;;;;;;;2.65;0.90;;;8.80;82.50;;;;;;5075065;28;20205;-79
2021/04/11 10:12:38;;;;;;;8.45;2.00;;;8.80;82.30;;;;;;5093539;28;20201;-77
2021/04/11 10:15:13;;;;;;;2.95;1.00;;;8.80;82.00;;;;;;5089920;28;20217;-77
2021/04/11 10:18:09;;;;;;;3.80;1.13;;;8.70;82.60;;;;;;5084823;28;20200;-77
2021/04/11 10:20:39;;;;;;;3.20;0.93;;;8.70;81.90;;;;;;5083552;28;20213;-77
2021/04/11 10:23:17;;;;;;;3.03;1.08;;;8.70;81.90;;;;;;5092549;28;20559;-81
2021/04/11 10:25:53;;;;;;;6.65;1.20;;;8.70;82.00;;;;;;5070041;28;20228;-76
2021/04/11 10:28:28;;;;;;;5.65;1.10;;;8.70;82.10;;;;;;5062481;28;20216;-78
2021/04/11 10:31:01;;;;;;;3.40;1.00;;;8.70;82.40;;;;;;5087519;28;20211;-76
2021/04/11 10:33:34;;;;;;;4.47;1.30;;;8.70;82.50;;;;;;5094421;28;20573;-78
2021/04/11 10:36:06;;;;;;;7.38;0.85;;;8.70;82.70;;;;;;5091607;28;20742;-77
2021/04/11 10:38:40;;;;;;;3.88;1.15;;;8.80;82.90;;;;;;5097232;28;20198;-79
2021/04/11 10:41:21;;;;;;;6.55;1.00;;;8.80;83.00;;;;;;5090519;28;20225;-78
2021/04/11 10:44:05;;;;;;;4.35;1.10;;;8.90;83.10;;;;;;5092948;28;20252;-78
2021/04/11 10:46:42;;;;;;;4.10;0.90;;;9.00;83.10;;;;;;5078626;28;20213;-78
2021/04/11 10:49:26;;;;;;;5.28;0.82;;;9.00;82.80;;;;;;5075546;28;20201;-78
2021/04/11 10:52:13;;;;;;;3.50;0.80;;;9.00;82.50;;;;;;5090849;28;20335;-77
2021/04/11 10:55:19;;;;;;;3.28;1.00;;;9.00;82.50;;;;;;5094774;28;20189;-76
2021/04/11 10:58:33;;;;;;;4.15;1.27;;;9.00;82.70;;;;;;5101764;28;20657;-78
2021/04/11 11:01:21;;;;;;;6.90;1.02;;;9.10;82.90;;;;;;4996959;28;20260;-78
2021/04/11 11:04:32;;;;;;;3.80;1.00;;;9.10;82.80;;;;;;4979640;28;20213;-78
2021/04/11 11:07:35;;;;;;;2.63;1.13;;;9.10;82.60;;;;;;5073419;28;20219;-77
2021/04/11 11:10:08;;;;;;;3.50;1.10;;;9.30;82.80;;;;;;5095803;28;20220;-77
2021/04/11 11:12:55;;;;;;;4.50;0.80;;;9.40;82.90;;;;;;5099869;28;20227;-77
2021/04/11 11:16:04;;;;;;;2.50;1.17;;;9.50;82.90;;;;;;5094538;28;20205;-78
2021/04/11 11:19:01;;;;;;;4.10;0.82;;;9.60;82.50;;;;;;5087633;28;20213;-78
2021/04/11 11:21:55;;;;;;;3.33;0.90;;;9.60;82.30;;;;;;5064420;28;20206;-77
2021/04/11 11:24:43;;;;;;;7.30;1.20;;;9.70;81.90;;;;;;5104108;28;20214;-77
2021/04/11 11:27:45;;;;;;;2.88;0.88;;;9.80;81.80;;;;;;5083227;28;20221;-77
2021/04/11 11:30:23;;;;;;;5.82;1.10;;;9.80;81.40;;;;;;5098638;28;20669;-76
2021/04/11 11:33:03;;;;;;;2.17;1.02;;;9.90;81.00;;;;;;5079062;28;20218;-75
2021/04/11 11:35:30;;;;;;;4.78;1.35;;;9.90;80.60;;;;;;5093358;28;20202;-77
2021/04/11 11:38:06;;;;;;;2.88;1.00;;;10.00;80.30;;;;;;5077664;28;20221;-76
2021/04/11 11:40:38;;;;;;;3.25;0.70;;;10.00;79.60;;;;;;5104523;28;20303;-78
2021/04/11 11:43:23;;;;;;;6.28;1.13;;;9.90;79.00;;;;;;5078352;28;20210;-75
2021/04/11 11:46:05;;;;;;;5.47;1.30;;;9.90;78.80;;;;;;5092536;28;20242;-76
2021/04/11 11:48:40;;;;;;;2.92;1.00;;;10.00;78.90;;;;;;5092134;28;20202;-75
2021/04/11 11:51:13;;;;;;;6.18;0.95;;;10.10;78.50;;;;;;5077913;28;20244;-78
2021/04/11 11:53:43;;;;;;;4.45;0.90;;;10.30;78.20;;;;;;5096883;28;20202;-77
2021/04/11 11:56:30;;;;;;;3.63;0.98;;;10.30;77.80;;;;;;5093057;28;20747;-78
2021/04/11 11:59:06;;;;;;;3.22;1.10;;;10.50;77.30;;;;;;5095500;28;20674;-76
2021/04/11 12:01:39;;;;;;;4.28;1.20;;;10.50;77.70;;;;;;5093637;28;20566;-77
2021/04/11 12:04:34;;;;;;;7.47;1.30;;;10.60;76.30;;;;;;5085526;28;20210;-77
2021/04/11 12:07:06;;;;;;;3.67;0.95;;;10.70;75.60;;;;;;5079231;28;20695;-78
2021/04/11 12:09:39;;;;;;;4.40;1.08;;;10.80;75.00;;;;;;5097991;28;20198;-77
2021/04/11 12:12:12;;;;;;;3.75;1.10;;;10.90;74.80;;;;;;5099951;28;20201;-81
2021/04/11 12:14:45;;;;;;;9.80;2.85;;;11.00;74.30;;;;;;5082201;28;20284;-78
2021/04/11 12:17:18;;;;;;;7.57;1.30;;;11.10;73.90;;;;;;5098323;28;20201;-79
2021/04/11 12:19:55;;;;;;;4.53;0.90;;;11.10;73.60;;;;;;5079123;28;20599;-81
2021/04/11 12:22:32;;;;;;;9.23;1.10;;;11.20;73.30;;;;;;5078303;28;20633;-79
2021/04/11 12:25:01;;;;;;;3.33;0.90;;;11.20;73.00;;;;;;5098379;28;20213;-78
2021/04/11 12:27:31;;;;;;;2.75;1.10;;;11.30;73.00;;;;;;5101862;28;20679;-80
2021/04/11 12:30:00;;;;;;;7.13;1.50;;;11.40;72.80;;;;;;5093241;28;20198;-76
2021/04/11 12:32:35;;;;;;;3.33;1.20;;;11.50;72.10;;;;;;5092514;28;20650;-75
2021/04/11 12:35:15;;;;;;;4.55;1.27;;;11.60;71.60;;;;;;5089486;28;20197;-77
2021/04/11 12:37:49;;;;;;;4.47;1.48;;;11.70;71.00;;;;;;5086447;28;22297;-76
2021/04/11 12:40:22;;;;;;;5.60;1.20;;;11.70;70.80;;;;;;5074249;28;20232;-76
2021/04/11 12:42:55;;;;;;;3.33;1.10;;;11.80;71.10;;;;;;5090653;28;20208;-75
2021/04/11 12:45:27;;;;;;;4.57;1.25;;;11.90;71.50;;;;;;5097454;28;20213;-77
2021/04/11 12:48:05;;;;;;;6.75;1.42;;;12.00;71.20;;;;;;5094694;28;20209;-80
2021/04/11 12:50:35;;;;;;;2.78;1.10;;;12.10;71.00;;;;;;5079705;28;20204;-77
2021/04/11 12:53:10;;;;;;;6.00;1.30;;;12.20;71.10;;;;;;5099154;28;20592;-79
2021/04/11 12:55:43;;;;;;;8.27;1.38;;;12.10;69.40;;;;;;5079996;28;20205;-76
2021/04/11 12:58:21;;;;;;;5.65;0.93;;;12.10;69.30;;;;;;5096780;28;20290;-76
2021/04/11 13:00:56;;;;;;;6.13;1.20;;;12.20;69.60;;;;;;5098213;28;20207;-80
2021/04/11 13:03:27;;;;;;;3.22;1.00;;;12.40;69.60;;;;;;5082611;28;20862;-80
2021/04/11 13:05:58;;;;;;;4.45;1.13;;;12.50;68.60;;;;;;5096568;28;20301;-79
2021/04/11 13:08:32;;;;;;;4.85;1.05;;;12.50;67.80;;;;;;5095803;28;20208;-78
2021/04/11 13:11:04;;;;;;;4.53;1.08;;;12.40;67.50;;;;;;5080731;28;20219;-79
2021/04/11 13:13:36;;;;;;;3.75;0.70;;;12.40;67.20;;;;;;5096128;28;20662;-78
2021/04/11 13:16:11;;;;;;;4.03;1.15;;;12.40;66.30;;;;;;5094213;28;20197;-79
2021/04/11 13:18:42;;;;;;;4.85;1.23;;;12.40;66.20;;;;;;5077539;28;20200;-78
2021/04/11 13:21:17;;;;;;;4.70;1.13;;;12.50;66.40;;;;;;5098586;28;20262;-79
2021/04/11 13:23:51;;;;;;;7.30;1.25;;;12.50;65.90;;;;;;5097155;28;20966;-76
2021/04/11 13:26:26;;;;;;;3.20;1.23;;;12.40;65.10;;;;;;5076618;28;20273;-76
2021/04/11 13:29:02;;;;;;;7.00;1.65;;;12.40;65.00;;;;;;5097218;28;20637;-79
2021/04/11 13:31:41;;;;;;;4.28;1.13;;;12.30;64.90;;;;;;5096295;28;20197;-80
2021/04/11 13:34:15;;;;;;;6.57;1.30;;;12.30;65.40;;;;;;5075914;28;20208;-77
2021/04/11 13:36:45;;;;;;;4.07;1.38;;;12.50;66.30;;;;;;5084407;28;20618;-80
2021/04/11 13:39:18;;;;;;;4.15;1.13;;;12.70;66.70;;;;;;5100953;28;20731;-78
2021/04/11 13:42:17;;;;;;;3.13;1.15;;;13.00;67.20;;;;;;5102140;28;20704;-81
2021/04/11 13:44:54;;;;;;;3.08;1.00;;;13.50;67.70;;;;;;5090969;28;20218;-77
2021/04/11 13:47:29;;;;;;;4.28;1.10;;;13.70;66.70;;;;;;5075174;28;20197;-78
2021/04/11 13:50:00;;;;;;;8.25;1.48;;;13.90;65.60;;;;;;5083155;28;20288;-80